createdAt,value
2022-11-14T00:04:05.884Z,5.14
2022-11-14T00:09:07.151Z,5.05
2022-11-14T00:14:08.402Z,5.13
2022-11-14T00:19:09.634Z,4.92
2022-11-14T00:24:10.836Z,5.04
2022-11-14T00:29:12.105Z,5.08
2022-11-14T00:34:13.422Z,5.17
2022-11-14T00:39:14.684Z,5.15
2022-11-14T00:44:15.919Z,4.74
2022-11-14T00:49:17.134Z,4.77
2022-11-14T00:54:18.332Z,4.70
2022-11-14T00:59:19.538Z,4.81
2022-11-14T01:04:20.758Z,4.69
2022-11-14T01:09:22.059Z,4.87
2022-11-14T01:14:23.329Z,4.85
2022-11-14T01:19:24.554Z,4.81
2022-11-14T01:24:25.792Z,4.76
2022-11-14T01:29:27.015Z,4.88
2022-11-14T01:34:29.496Z,4.84
2022-11-14T01:39:30.805Z,4.82
2022-11-14T01:44:32.054Z,4.60
2022-11-14T01:49:33.311Z,4.54
2022-11-14T01:54:34.540Z,4.51
2022-11-14T01:59:35.817Z,4.36
2022-11-14T02:04:37.065Z,4.19
2022-11-14T02:09:38.294Z,4.16
2022-11-14T02:14:39.612Z,4.17
2022-11-14T02:19:41.037Z,4.12
2022-11-14T02:24:42.305Z,4.12
2022-11-14T02:29:43.575Z,4.15
2022-11-14T02:34:44.843Z,4.18
2022-11-14T02:39:46.055Z,4.03
2022-11-14T02:44:47.309Z,3.73
2022-11-14T02:49:48.594Z,3.15
2022-11-14T02:54:54.280Z,3.53
2022-11-14T02:59:56.009Z,3.72
2022-11-14T03:04:57.256Z,3.60
2022-11-14T03:09:58.630Z,3.45
2022-11-14T03:15:00.034Z,3.69
2022-11-14T03:20:01.521Z,3.64
2022-11-14T03:25:02.793Z,3.93
2022-11-14T03:30:04.162Z,4.05
2022-11-14T03:35:05.366Z,4.12
2022-11-14T03:40:06.597Z,4.07
2022-11-14T03:45:07.941Z,4.05
2022-11-14T03:50:09.214Z,4.18
2022-11-14T03:55:10.440Z,4.07
2022-11-14T04:00:11.679Z,4.09
2022-11-14T04:05:12.878Z,3.75
2022-11-14T04:10:14.085Z,3.62
2022-11-14T04:15:15.322Z,3.58
2022-11-14T04:20:16.514Z,3.49
2022-11-14T04:25:17.721Z,3.49
2022-11-14T04:30:18.954Z,3.67
2022-11-14T04:35:20.234Z,3.76
2022-11-14T04:40:21.519Z,3.52
2022-11-14T04:45:23.012Z,3.46
2022-11-14T04:50:24.372Z,3.38
2022-11-14T04:55:25.571Z,3.38
2022-11-14T05:00:26.888Z,3.41
2022-11-14T05:05:28.184Z,3.55
2022-11-14T05:10:29.396Z,3.71
2022-11-14T05:15:30.632Z,3.49
2022-11-14T05:20:31.853Z,3.54
2022-11-14T05:25:33.098Z,3.72
2022-11-14T05:30:34.323Z,3.71
2022-11-14T05:35:35.568Z,3.44
2022-11-14T05:40:36.764Z,3.48
2022-11-14T05:45:37.982Z,3.10
2022-11-14T05:50:39.217Z,3.44
2022-11-14T05:55:40.421Z,3.75
2022-11-14T06:00:48.880Z,3.97
2022-11-14T06:05:53.350Z,3.80
2022-11-14T06:10:54.568Z,3.72
2022-11-14T06:15:55.811Z,3.56
2022-11-14T06:20:57.073Z,3.27
2022-11-14T06:25:58.340Z,3.42
2022-11-14T06:30:59.942Z,3.39
2022-11-14T06:36:01.204Z,3.30
2022-11-14T06:41:02.421Z,3.48
2022-11-14T06:46:03.653Z,3.61
2022-11-14T06:51:04.904Z,3.46
2022-11-14T06:56:06.547Z,3.15
2022-11-14T07:01:07.785Z,3.52
2022-11-14T07:06:09.085Z,3.25
2022-11-14T07:11:10.332Z,3.58
2022-11-14T07:16:11.548Z,3.69
2022-11-14T07:21:15.855Z,3.62
2022-11-14T07:26:17.117Z,3.30
2022-11-14T07:31:18.586Z,3.56
2022-11-14T07:36:22.594Z,3.66
2022-11-14T07:41:23.937Z,3.72
2022-11-14T07:46:25.344Z,3.50
2022-11-14T07:51:26.691Z,3.70
2022-11-14T07:56:28.050Z,3.58
2022-11-14T08:01:29.718Z,3.77
2022-11-14T08:06:31.260Z,4.99
2022-11-14T08:11:48.108Z,4.37
2022-11-14T08:16:49.555Z,4.12
2022-11-14T08:21:50.830Z,3.83
2022-11-14T08:26:52.050Z,4.53
2022-11-14T08:31:58.541Z,4.80
2022-11-14T08:37:01.294Z,4.94
2022-11-14T08:42:02.652Z,5.04
2022-11-14T08:47:03.975Z,5.12
2022-11-14T08:52:05.422Z,5.43
2022-11-14T08:57:06.708Z,5.54
2022-11-14T09:02:07.943Z,6.11
2022-11-14T09:07:09.311Z,6.39
2022-11-14T09:12:10.549Z,6.76
2022-11-14T09:17:11.771Z,7.14
2022-11-14T09:22:13.155Z,7.31
2022-11-14T09:27:14.420Z,7.67
2022-11-14T09:32:15.653Z,8.03
2022-11-14T09:37:16.922Z,8.38
2022-11-14T09:42:18.130Z,8.48
2022-11-14T09:47:21.378Z,8.71
2022-11-14T09:52:22.657Z,8.91
2022-11-14T09:57:23.902Z,9.21
2022-11-14T10:02:25.281Z,9.50
2022-11-14T10:07:26.591Z,9.84
2022-11-14T10:12:27.857Z,10.06
2022-11-14T10:17:29.106Z,10.37
2022-11-14T10:22:30.477Z,10.58
2022-11-14T10:27:31.749Z,10.94
2022-11-14T10:32:32.993Z,11.19
2022-11-14T10:37:34.381Z,11.48
2022-11-14T10:42:35.640Z,11.74
2022-11-14T10:47:36.954Z,12.16
2022-11-14T10:52:38.217Z,12.79
2022-11-14T10:57:39.456Z,12.96
2022-11-14T11:02:40.661Z,12.80
2022-11-14T11:08:14.998Z,13.51
2022-11-14T11:13:21.954Z,13.91
2022-11-14T11:18:23.271Z,13.77
2022-11-14T11:23:24.545Z,13.77
2022-11-14T11:28:25.809Z,14.64
2022-11-14T11:33:27.294Z,15.99
2022-11-14T11:38:28.877Z,16.18
2022-11-14T11:43:39.296Z,16.15
2022-11-14T11:48:41.190Z,16.72
2022-11-14T11:53:42.438Z,16.32
2022-11-14T11:58:44.382Z,15.69
2022-11-14T12:03:45.758Z,15.30
2022-11-14T12:08:47.080Z,15.02
2022-11-14T12:13:48.306Z,14.68
2022-11-14T12:18:49.574Z,14.56
2022-11-14T12:23:50.812Z,14.57
2022-11-14T12:28:59.001Z,14.53
2022-11-14T12:34:00.404Z,15.14
2022-11-14T12:39:01.652Z,15.68
2022-11-14T12:44:02.983Z,16.13
2022-11-14T12:49:04.234Z,15.88
2022-11-14T12:54:05.474Z,15.57
2022-11-14T12:59:06.783Z,15.13
2022-11-14T13:04:07.999Z,15.05
2022-11-14T13:09:09.213Z,14.81
2022-11-14T13:14:29.406Z,15.05
2022-11-14T13:19:49.550Z,15.03
2022-11-14T13:24:50.806Z,14.67
2022-11-14T13:29:52.081Z,14.85
2022-11-14T13:34:53.300Z,15.43
2022-11-14T13:39:54.534Z,15.47
2022-11-14T13:44:55.786Z,15.43
2022-11-14T13:49:57.727Z,14.95
2022-11-14T13:54:58.976Z,14.89
2022-11-14T14:00:00.212Z,14.49
2022-11-14T14:05:01.456Z,14.35
2022-11-14T14:10:02.707Z,14.29
2022-11-14T14:15:04.548Z,14.09
2022-11-14T14:20:05.785Z,14.19
2022-11-14T14:25:07.061Z,13.88
2022-11-14T14:30:08.492Z,13.31
2022-11-14T14:35:09.837Z,12.91
2022-11-14T14:40:11.557Z,12.96
2022-11-14T14:45:12.812Z,12.61
2022-11-14T14:50:14.136Z,12.66
2022-11-14T14:55:15.389Z,12.81
2022-11-14T15:00:16.785Z,12.61
2022-11-14T15:05:18.147Z,12.23
2022-11-14T15:10:29.028Z,12.27
2022-11-14T15:15:30.517Z,11.46
2022-11-14T15:20:31.773Z,11.43
2022-11-14T15:25:33.016Z,11.40
2022-11-14T15:30:37.493Z,11.21
2022-11-14T15:35:38.850Z,11.15
2022-11-14T15:40:40.139Z,10.92
2022-11-14T15:45:42.829Z,10.81
2022-11-14T15:50:44.069Z,10.83
2022-11-14T15:55:45.289Z,10.78
2022-11-14T16:00:46.585Z,10.81
2022-11-14T16:05:47.881Z,10.63
2022-11-14T16:10:49.117Z,10.34
2022-11-14T16:15:50.541Z,10.18
2022-11-14T16:20:51.819Z,10.07
2022-11-14T16:25:53.086Z,10.22
2022-11-14T16:30:54.308Z,10.15
2022-11-14T16:35:55.569Z,9.94
2022-11-14T16:40:56.826Z,9.86
2022-11-14T16:45:58.080Z,9.86
2022-11-14T16:50:59.345Z,9.61
2022-11-14T16:56:00.825Z,9.72
2022-11-14T17:01:02.083Z,9.49
2022-11-14T17:06:03.406Z,9.21
2022-11-14T17:11:04.647Z,9.09
2022-11-14T17:16:05.877Z,9.12
2022-11-14T17:21:07.134Z,8.89
2022-11-14T17:26:08.389Z,8.70
2022-11-14T17:31:09.604Z,8.75
2022-11-14T17:36:10.814Z,8.77
2022-11-14T17:41:12.139Z,8.33
2022-11-14T17:46:16.112Z,7.67
2022-11-14T17:51:17.673Z,7.68
2022-11-14T17:56:18.888Z,7.72
2022-11-14T18:01:20.291Z,7.81
2022-11-14T18:06:21.568Z,7.95
2022-11-14T18:11:22.830Z,7.83
2022-11-14T18:16:44.484Z,8.00
2022-11-14T18:21:52.310Z,7.76
2022-11-14T18:26:55.484Z,7.46
2022-11-14T18:31:56.691Z,7.41
2022-11-14T18:36:57.921Z,6.64
2022-11-14T18:42:01.234Z,7.11
2022-11-14T18:47:02.547Z,7.25
2022-11-14T18:52:10.162Z,7.11
2022-11-14T18:57:14.028Z,7.15
2022-11-14T19:02:15.370Z,7.23
2022-11-14T19:07:16.863Z,7.54
2022-11-14T19:12:18.139Z,7.71
2022-11-14T19:17:21.017Z,7.50
2022-11-14T19:22:22.369Z,7.59
2022-11-14T19:27:23.651Z,7.23
2022-11-14T19:32:24.916Z,7.21
2022-11-14T19:37:26.214Z,7.17
2022-11-14T19:42:27.452Z,7.27
2022-11-14T19:47:28.649Z,6.85
2022-11-14T19:52:29.869Z,6.80
2022-11-14T19:57:31.343Z,6.68
2022-11-14T20:02:32.557Z,6.48
2022-11-14T20:07:35.315Z,6.11
2022-11-14T20:12:36.677Z,6.42
2022-11-14T20:17:37.888Z,6.42
2022-11-14T20:22:39.145Z,6.77
2022-11-14T20:27:40.504Z,6.83
2022-11-14T20:32:41.753Z,6.86
2022-11-14T20:37:42.986Z,6.66
2022-11-14T20:42:44.213Z,6.38
2022-11-14T20:47:45.476Z,6.43
2022-11-14T20:52:46.839Z,6.04
2022-11-14T20:57:48.065Z,6.39
2022-11-14T21:02:49.946Z,6.54
2022-11-14T21:07:51.165Z,6.59
2022-11-14T21:13:12.359Z,6.53
2022-11-14T21:18:13.590Z,6.30
2022-11-14T21:23:14.891Z,6.52
2022-11-14T21:28:16.531Z,6.59
2022-11-14T21:33:22.170Z,6.64
2022-11-14T21:38:23.552Z,6.58
2022-11-14T21:43:24.811Z,6.45
2022-11-14T21:48:26.197Z,6.56
2022-11-14T21:53:27.493Z,6.48
2022-11-14T21:58:28.781Z,6.43
2022-11-14T22:03:48.908Z,6.10
2022-11-14T22:08:50.251Z,6.16
2022-11-14T22:13:51.915Z,6.29
2022-11-14T22:18:53.229Z,6.11
2022-11-14T22:23:54.487Z,6.08
2022-11-14T22:28:55.679Z,5.53
2022-11-14T22:33:56.949Z,5.66
2022-11-14T22:38:58.185Z,5.86
2022-11-14T22:43:59.622Z,6.07
2022-11-14T22:49:03.710Z,5.94
2022-11-14T22:54:05.093Z,6.00
2022-11-14T22:59:06.289Z,6.03
2022-11-14T23:04:07.583Z,6.15
2022-11-14T23:09:08.865Z,6.02
2022-11-14T23:14:10.092Z,5.91
2022-11-14T23:19:11.296Z,5.60
2022-11-14T23:24:12.566Z,5.75
2022-11-14T23:29:14.400Z,5.65
2022-11-14T23:34:15.626Z,5.63
2022-11-14T23:39:16.845Z,5.53
2022-11-14T23:44:18.062Z,5.30
2022-11-14T23:49:19.286Z,5.32
2022-11-14T23:54:20.542Z,5.31
2022-11-14T23:59:21.840Z,5.26
